Winchester, Ohio
Current Conditions -  °F | °C
As of 1:15 PM on Wednesday 28 Jan 2015 (Local Time) from KFGX Reporting Station
Clear Clear  
Wind Chill: 28°   Ceiling: Unl
Heat Index: 28°   Visibility: 10mi
Dew Point: 16°   Wind: 0mph
Humidity: 61%   Direction: NA
Pressure: 30.36"   Gusts: NA
Location:  38.94°N, 83.65°W
Report Text: KFGX 281815Z AUTO 00000KT 10SM CLR M02/M09 A3036 RMK AO2 T10201087
Loading
Personal Weather Stations






























Interactive Weather Map New forecast layout! Learn more

10-Day Weather Forecast

Advertisements
Track Severe Weather on mobile